Time;durP1;ratioP1;P1;durP2;ratioP2;P2;SDS_P1;SDS_P2;PMS_P1;PMS_P2;Temp;Humidity;BMP_temperature;BMP_pressure;BME280_temperature;BME280_humidity;BME280_pressure;Samples;Min_cycle;Max_cycle;Signal;HPM_P1;HPM_P2
2022/12/01 00:01:08;;;;;;;98.57;34.78;;;6.00;99.90;;;;;;5103275;27;20043;-83
2022/12/01 00:03:35;;;;;;;98.20;34.65;;;6.90;99.90;;;;;;5103611;27;20473;-84
2022/12/01 00:06:19;;;;;;;90.57;33.60;;;6.20;99.90;;;;;;5103757;27;20092;-84
2022/12/01 00:10:24;;;;;;;;;;;6.00;99.90;;;;;;5103962;27;20133;-85
2022/12/01 00:11:31;;;;;;;87.78;32.42;;;6.00;99.90;;;;;;5137558;27;20026;-83
2022/12/01 00:13:57;;;;;;;86.80;33.95;;;6.10;99.90;;;;;;5104140;27;20505;-85
2022/12/01 00:16:23;;;;;;;99.65;35.30;;;6.30;99.90;;;;;;5105829;27;20078;-83
2022/12/01 00:18:49;;;;;;;93.32;35.40;;;6.20;99.90;;;;;;5141362;27;20053;-83
2022/12/01 00:21:16;;;;;;;86.22;32.72;;;6.10;99.90;;;;;;5086553;27;20047;-84
2022/12/01 00:23:43;;;;;;;94.72;35.88;;;6.60;99.90;;;;;;5103200;27;20375;-84
2022/12/01 00:26:08;;;;;;;91.40;32.92;;;6.00;99.90;;;;;;5120077;27;20047;-83
2022/12/01 00:28:40;;;;;;;92.20;35.72;;;6.00;99.90;;;;;;5120412;27;20049;-84
2022/12/01 00:31:09;;;;;;;93.93;34.53;;;6.00;99.90;;;;;;5119791;27;20047;-83
2022/12/01 00:33:35;;;;;;;97.80;35.58;;;6.00;99.90;;;;;;5119940;27;20153;-84
2022/12/01 00:36:01;;;;;;;93.15;35.40;;;6.50;99.90;;;;;;5119349;27;20133;-84
2022/12/01 00:38:26;;;;;;;85.28;33.92;;;6.00;99.90;;;;;;5102283;27;20050;-83
2022/12/01 00:40:54;;;;;;;83.78;34.65;;;6.30;99.90;;;;;;5102448;27;20058;-84
2022/12/01 00:43:20;;;;;;;98.10;37.25;;;5.90;99.90;;;;;;5103336;27;20046;-84
2022/12/01 00:45:46;;;;;;;92.50;33.63;;;7.10;99.90;;;;;;5118795;27;20058;-84
2022/12/01 00:48:11;;;;;;;86.45;33.50;;;5.90;99.90;;;;;;5119290;27;20057;-85
2022/12/01 00:50:37;;;;;;;87.28;33.13;;;5.90;99.90;;;;;;5101800;27;20050;-85
2022/12/01 00:53:02;;;;;;;98.47;37.97;;;6.40;99.90;;;;;;5102754;27;20616;-84
2022/12/01 00:55:28;;;;;;;95.35;35.88;;;6.20;99.90;;;;;;5119411;27;20521;-84
2022/12/01 00:57:55;;;;;;;90.70;34.13;;;5.90;99.90;;;;;;5136188;27;20382;-83
2022/12/01 01:00:21;;;;;;;90.82;33.53;;;6.00;99.90;;;;;;5135875;27;20161;-84
2022/12/01 01:02:46;;;;;;;94.20;35.83;;;6.00;99.90;;;;;;5118906;27;20153;-86
2022/12/01 01:05:12;;;;;;;95.57;36.33;;;6.20;99.90;;;;;;5119208;27;20042;-84
2022/12/01 01:07:37;;;;;;;93.22;35.55;;;5.90;99.90;;;;;;5118688;27;20039;-84
2022/12/01 01:10:04;;;;;;;93.32;35.47;;;5.90;99.90;;;;;;5118880;27;20086;-86
2022/12/01 01:12:29;;;;;;;91.75;35.63;;;5.90;99.90;;;;;;5119170;27;20051;-84
2022/12/01 01:14:55;;;;;;;89.95;35.90;;;5.90;99.90;;;;;;5135185;27;20050;-85
2022/12/01 01:17:21;;;;;;;91.90;35.15;;;5.90;99.90;;;;;;5135460;27;20098;-83
2022/12/01 01:19:46;;;;;;;89.35;35.60;;;5.90;99.90;;;;;;5118671;27;20050;-84
2022/12/01 01:22:12;;;;;;;94.72;34.05;;;6.00;99.90;;;;;;5136189;27;20093;-84
2022/12/01 01:24:38;;;;;;;87.80;35.70;;;5.90;99.90;;;;;;5135744;27;20488;-84
2022/12/01 01:27:04;;;;;;;87.13;34.30;;;5.90;99.90;;;;;;5136999;27;20495;-84
2022/12/01 01:29:31;;;;;;;82.43;33.22;;;5.90;99.90;;;;;;5105045;27;20054;-84
2022/12/01 01:31:57;;;;;;;89.57;34.97;;;5.90;99.90;;;;;;5138636;27;20047;-83
2022/12/01 01:34:22;;;;;;;88.18;34.40;;;5.90;99.90;;;;;;5118176;27;20050;-83
2022/12/01 01:36:48;;;;;;;88.53;34.22;;;5.90;99.90;;;;;;5101245;27;20058;-84
2022/12/01 01:39:13;;;;;;;90.25;34.42;;;7.40;99.90;;;;;;5118393;27;20053;-84
2022/12/01 01:41:40;;;;;;;93.18;37.28;;;6.60;99.90;;;;;;5101296;27;20047;-85
2022/12/01 01:44:43;;;;;;;94.75;37.03;;;6.40;99.90;;;;;;5135082;27;20046;-83
2022/12/01 01:47:09;;;;;;;93.75;35.65;;;5.80;99.90;;;;;;5135358;27;20046;-84
2022/12/01 01:49:35;;;;;;;101.00;36.53;;;5.90;99.90;;;;;;5100749;27;20384;-83
2022/12/01 01:52:03;;;;;;;93.00;36.53;;;5.90;99.90;;;;;;5100185;27;20085;-84
2022/12/01 01:54:39;;;;;;;92.63;38.33;;;5.90;99.90;;;;;;5090234;27;20126;-85
2022/12/01 01:57:05;;;;;;;91.00;37.17;;;5.90;99.90;;;;;;5134847;27;20039;-85
2022/12/01 01:59:37;;;;;;;88.82;34.97;;;5.90;99.90;;;;;;5100826;27;20047;-83
2022/12/01 02:02:05;;;;;;;90.90;37.15;;;5.90;99.90;;;;;;5084437;27;20085;-84
2022/12/01 02:04:35;;;;;;;83.82;32.60;;;6.00;99.90;;;;;;5118230;27;20055;-84
2022/12/01 02:07:00;;;;;;;93.30;37.25;;;7.60;99.90;;;;;;5101063;27;20112;-85
2022/12/01 02:09:26;;;;;;;78.50;34.13;;;6.70;99.90;;;;;;5101225;27;20097;-83
2022/12/01 02:12:05;;;;;;;88.47;34.97;;;6.00;99.90;;;;;;5134874;27;20512;-82
2022/12/01 02:14:49;;;;;;;88.30;34.35;;;6.00;99.90;;;;;;5118551;27;20043;-83
2022/12/01 02:17:30;;;;;;;83.70;33.63;;;6.50;99.90;;;;;;5117913;27;20089;-83
2022/12/01 02:20:21;;;;;;;94.50;36.65;;;6.50;99.90;;;;;;5117230;27;20043;-84
2022/12/01 02:22:59;;;;;;;89.88;35.08;;;6.00;99.90;;;;;;5120122;27;20062;-85
2022/12/01 02:25:46;;;;;;;85.15;36.35;;;5.90;99.90;;;;;;5118004;27;20051;-83
2022/12/01 02:28:15;;;;;;;87.22;35.33;;;6.00;99.90;;;;;;5134658;27;20054;-83
2022/12/01 02:31:08;;;;;;;81.30;34.78;;;6.00;99.90;;;;;;5134562;27;20054;-84
2022/12/01 02:33:42;;;;;;;87.88;36.50;;;6.00;99.90;;;;;;5089450;27;20046;-83
2022/12/01 02:36:23;;;;;;;89.95;36.28;;;6.00;99.90;;;;;;5101416;27;20082;-84
2022/12/01 02:39:01;;;;;;;86.22;38.05;;;6.60;99.90;;;;;;5134636;27;20039;-84
2022/12/01 02:41:29;;;;;;;89.95;37.70;;;7.50;99.90;;;;;;5101242;27;20078;-84
2022/12/01 02:44:00;;;;;;;92.72;36.95;;;6.60;99.90;;;;;;5100397;27;20043;-84
2022/12/01 02:46:29;;;;;;;95.68;36.67;;;5.90;99.90;;;;;;5116927;27;20055;-84
2022/12/01 02:48:56;;;;;;;89.80;35.53;;;5.90;99.90;;;;;;5117090;27;20129;-84
2022/12/01 02:51:29;;;;;;;97.22;36.53;;;5.90;99.90;;;;;;5100788;27;20058;-84
2022/12/01 02:53:56;;;;;;;98.27;37.37;;;5.90;99.90;;;;;;5100720;27;20115;-84
2022/12/01 02:56:22;;;;;;;96.13;36.90;;;5.90;99.90;;;;;;5101122;27;20378;-84
2022/12/01 02:58:49;;;;;;;98.93;37.97;;;6.00;99.90;;;;;;5117716;27;20133;-86
2022/12/01 03:01:36;;;;;;;84.03;35.60;;;5.90;99.90;;;;;;5118315;27;20103;-83
2022/12/01 03:04:05;;;;;;;87.55;36.38;;;6.00;99.90;;;;;;5139532;27;20122;-84
2022/12/01 03:06:51;;;;;;;96.43;37.65;;;7.10;99.90;;;;;;5138714;27;20097;-84
2022/12/01 03:09:23;;;;;;;91.47;37.83;;;6.20;99.90;;;;;;5121071;27;20165;-84
2022/12/01 03:11:58;;;;;;;98.95;38.92;;;5.90;99.90;;;;;;5121762;27;20050;-84
2022/12/01 03:14:38;;;;;;;91.07;36.60;;;5.80;99.90;;;;;;5105670;27;20046;-84
2022/12/01 03:17:06;;;;;;;97.05;35.22;;;5.70;99.90;;;;;;5105473;27;20061;-84
2022/12/01 03:19:43;;;;;;;99.70;38.28;;;6.90;99.90;;;;;;5104523;27;20051;-83
2022/12/01 03:22:25;;;;;;;99.10;38.22;;;5.70;99.90;;;;;;5104790;27;20039;-84
2022/12/01 03:24:51;;;;;;;91.97;34.65;;;5.80;99.90;;;;;;5105159;27;20483;-84
2022/12/01 03:27:18;;;;;;;101.32;39.15;;;5.90;99.90;;;;;;5087511;27;20047;-84
2022/12/01 03:29:45;;;;;;;102.03;41.47;;;5.80;99.90;;;;;;5107913;27;20146;-84
2022/12/01 03:32:14;;;;;;;98.45;37.30;;;5.80;99.90;;;;;;5107484;27;20130;-84
2022/12/01 03:34:45;;;;;;;103.10;36.80;;;6.50;99.90;;;;;;5121715;27;20051;-83
2022/12/01 03:37:14;;;;;;;107.00;39.53;;;6.60;99.90;;;;;;5120852;27;20051;-83
2022/12/01 03:39:43;;;;;;;101.22;38.40;;;5.80;99.90;;;;;;5115066;27;20078;-82
2022/12/01 03:42:18;;;;;;;98.22;39.92;;;5.80;99.90;;;;;;5083262;27;20086;-83
2022/12/01 03:44:52;;;;;;;101.80;39.42;;;5.80;99.90;;;;;;5083934;27;20050;-83
2022/12/01 03:47:20;;;;;;;102.13;38.47;;;5.70;99.90;;;;;;5101407;27;20134;-83
2022/12/01 03:49:46;;;;;;;112.05;40.08;;;5.80;99.90;;;;;;5067315;27;20043;-84
2022/12/01 03:52:30;;;;;;;102.63;40.22;;;5.70;99.90;;;;;;5066819;27;20091;-84
2022/12/01 03:55:08;;;;;;;103.47;38.20;;;5.70;99.90;;;;;;5084787;27;20122;-84
2022/12/01 03:57:41;;;;;;;99.45;38.28;;;5.70;99.90;;;;;;5117547;27;20047;-84
2022/12/01 04:00:10;;;;;;;105.67;40.27;;;5.70;99.90;;;;;;5083776;27;20425;-85
2022/12/01 04:02:36;;;;;;;99.00;40.25;;;5.60;99.90;;;;;;5083979;27;20461;-83
2022/12/01 04:05:04;;;;;;;108.20;42.17;;;5.60;99.90;;;;;;5066594;27;20054;-84
2022/12/01 04:07:29;;;;;;;104.15;40.05;;;5.50;99.90;;;;;;5066588;27;20059;-84
2022/12/01 04:09:55;;;;;;;106.20;41.22;;;5.50;99.90;;;;;;5117306;27;20054;-84
2022/12/01 04:12:31;;;;;;;114.07;43.00;;;6.50;99.90;;;;;;5117236;27;20047;-84
2022/12/01 04:14:58;;;;;;;102.60;39.05;;;5.90;99.90;;;;;;5116043;27;20088;-86
2022/12/01 04:17:24;;;;;;;121.47;41.97;;;5.40;99.90;;;;;;5083233;27;20555;-83
2022/12/01 04:19:50;;;;;;;112.07;40.65;;;6.00;99.90;;;;;;5099936;27;20390;-84
2022/12/01 04:22:15;;;;;;;108.07;39.25;;;5.50;99.90;;;;;;5082839;27;20043;-84
2022/12/01 04:24:41;;;;;;;114.55;40.10;;;5.50;99.90;;;;;;5066366;27;20053;-84
2022/12/01 04:27:07;;;;;;;113.45;40.97;;;6.50;99.90;;;;;;5116601;27;20119;-83
2022/12/01 04:29:32;;;;;;;124.55;42.00;;;5.70;99.90;;;;;;5116822;27;20138;-83
2022/12/01 04:31:58;;;;;;;108.60;38.38;;;5.60;99.90;;;;;;5116890;27;20108;-85
2022/12/01 04:34:24;;;;;;;115.00;40.33;;;5.80;99.90;;;;;;5099593;27;20051;-83
2022/12/01 04:36:49;;;;;;;114.53;40.88;;;5.60;99.90;;;;;;5116629;27;20082;-83
2022/12/01 04:39:15;;;;;;;115.97;39.97;;;5.70;99.90;;;;;;5099494;27;20031;-83
2022/12/01 04:41:41;;;;;;;107.07;39.70;;;5.60;99.90;;;;;;5082988;27;20051;-84
2022/12/01 04:44:08;;;;;;;122.82;40.67;;;5.60;99.90;;;;;;5116449;27;20046;-83
2022/12/01 04:46:35;;;;;;;108.40;39.90;;;5.60;99.90;;;;;;5082505;27;20047;-83
2022/12/01 04:49:01;;;;;;;112.95;42.58;;;6.00;99.90;;;;;;5116327;27;20493;-84
2022/12/01 04:51:27;;;;;;;110.68;41.17;;;5.60;99.90;;;;;;5099741;27;20104;-83
2022/12/01 04:53:52;;;;;;;119.50;42.97;;;5.60;99.90;;;;;;5083049;27;20134;-84
2022/12/01 04:56:18;;;;;;;122.22;42.80;;;6.10;99.90;;;;;;5115852;27;20031;-83
2022/12/01 04:58:44;;;;;;;121.20;42.20;;;5.50;99.90;;;;;;5115571;27;20051;-83
2022/12/01 05:01:11;;;;;;;130.95;43.83;;;5.50;99.90;;;;;;5098812;27;20047;-83
2022/12/01 05:03:38;;;;;;;119.35;41.47;;;5.50;99.90;;;;;;5098949;27;20100;-84
2022/12/01 05:06:07;;;;;;;121.90;43.05;;;5.60;99.90;;;;;;5097518;27;20063;-84
2022/12/01 05:08:33;;;;;;;125.78;43.90;;;5.80;99.90;;;;;;5065735;27;20047;-83
2022/12/01 05:10:59;;;;;;;127.13;42.42;;;5.60;99.90;;;;;;5116269;27;20043;-84
2022/12/01 05:13:24;;;;;;;120.22;41.80;;;6.30;99.90;;;;;;5115504;27;20051;-82
2022/12/01 05:15:50;;;;;;;134.18;45.35;;;5.80;99.90;;;;;;5081611;27;20049;-83
2022/12/01 05:18:16;;;;;;;133.73;44.20;;;5.60;99.90;;;;;;5064384;27;20051;-83
2022/12/01 05:20:56;;;;;;;125.28;43.92;;;7.00;99.90;;;;;;5098046;27;20043;-84
2022/12/01 05:23:26;;;;;;;103.68;36.38;;;5.60;99.90;;;;;;5114955;27;20040;-84
2022/12/01 05:25:52;;;;;;;117.90;40.33;;;6.90;99.90;;;;;;5080835;27;20499;-84
2022/12/01 05:28:18;;;;;;;106.28;40.45;;;5.80;99.90;;;;;;5081304;27;20047;-83
2022/12/01 05:30:44;;;;;;;117.68;41.22;;;5.70;99.90;;;;;;5115473;27;20058;-83
2022/12/01 05:33:09;;;;;;;115.82;40.55;;;5.80;99.90;;;;;;5114983;27;20058;-86
2022/12/01 05:35:35;;;;;;;119.45;42.72;;;6.50;99.90;;;;;;5115522;27;20409;-84
2022/12/01 05:38:01;;;;;;;124.32;45.30;;;6.60;99.90;;;;;;5098503;27;20047;-83
2022/12/01 05:40:27;;;;;;;116.45;41.15;;;5.80;99.90;;;;;;5115119;27;20127;-84
2022/12/01 05:42:52;;;;;;;121.97;42.05;;;5.60;99.90;;;;;;5115634;27;20448;-83
2022/12/01 05:45:18;;;;;;;110.40;38.33;;;7.00;99.90;;;;;;5115219;27;20188;-82
2022/12/01 05:47:44;;;;;;;121.72;42.78;;;6.90;99.90;;;;;;5106057;27;20510;-84
2022/12/01 05:50:09;;;;;;;118.65;41.92;;;5.70;99.90;;;;;;5115076;27;20094;-85
2022/12/01 05:52:35;;;;;;;114.40;40.08;;;5.70;99.90;;;;;;5098382;27;20039;-84
2022/12/01 05:55:02;;;;;;;116.43;40.28;;;6.50;99.90;;;;;;5081307;27;20054;-84
2022/12/01 05:57:27;;;;;;;118.53;40.45;;;5.70;99.90;;;;;;5115025;27;20043;-84
2022/12/01 05:59:53;;;;;;;114.30;40.50;;;5.70;99.90;;;;;;5114739;27;20088;-84
2022/12/01 06:02:19;;;;;;;124.00;42.63;;;5.70;99.90;;;;;;5097672;27;20043;-84
2022/12/01 06:04:44;;;;;;;127.20;42.97;;;6.00;99.90;;;;;;5114872;27;20051;-84
2022/12/01 06:07:10;;;;;;;117.22;41.80;;;5.60;99.90;;;;;;5115024;27;20053;-84
2022/12/01 06:09:35;;;;;;;125.28;43.15;;;5.60;99.90;;;;;;5097967;27;20082;-83
2022/12/01 06:12:01;;;;;;;126.03;42.97;;;5.60;99.90;;;;;;5081186;27;20059;-83
2022/12/01 06:14:27;;;;;;;119.38;41.85;;;5.80;99.90;;;;;;5114814;27;20058;-84
2022/12/01 06:16:52;;;;;;;120.13;41.28;;;5.60;99.90;;;;;;5114816;27;20088;-84
2022/12/01 06:19:18;;;;;;;123.20;43.80;;;5.60;99.90;;;;;;5080442;27;20095;-83
2022/12/01 06:21:44;;;;;;;120.72;42.42;;;5.50;99.90;;;;;;5097775;27;20050;-83
2022/12/01 06:24:09;;;;;;;128.98;42.78;;;5.50;99.90;;;;;;5114052;27;20050;-84
2022/12/01 06:26:35;;;;;;;135.75;43.35;;;5.50;99.90;;;;;;5097646;27;20050;-84
2022/12/01 06:29:00;;;;;;;126.38;41.65;;;5.50;99.90;;;;;;5098089;27;20676;-84
2022/12/01 06:31:26;;;;;;;126.32;44.60;;;5.50;99.90;;;;;;5080852;28;20051;-84
2022/12/01 06:33:52;;;;;;;132.25;42.25;;;5.50;99.90;;;;;;5097497;27;20378;-82
2022/12/01 06:36:18;;;;;;;122.90;43.45;;;6.20;99.90;;;;;;5114314;28;20479;-83
2022/12/01 06:38:43;;;;;;;123.68;41.17;;;5.50;99.90;;;;;;5102104;28;20117;-83
2022/12/01 06:41:10;;;;;;;131.88;41.85;;;5.60;99.90;;;;;;5082560;28;20498;-84
2022/12/01 06:43:38;;;;;;;112.95;41.70;;;5.90;99.90;;;;;;5063302;28;20047;-83
2022/12/01 06:46:04;;;;;;;132.90;44.05;;;5.70;99.90;;;;;;5094161;28;20144;-83
2022/12/01 06:48:30;;;;;;;120.88;41.35;;;5.60;99.90;;;;;;5093727;28;20122;-83
2022/12/01 06:50:57;;;;;;;126.75;42.60;;;5.70;99.90;;;;;;5093941;28;20043;-84
2022/12/01 06:53:23;;;;;;;122.53;42.28;;;6.10;99.90;;;;;;5093887;28;20043;-83
2022/12/01 06:55:49;;;;;;;134.82;42.17;;;5.70;99.90;;;;;;5111263;28;20376;-83
2022/12/01 06:58:15;;;;;;;119.65;42.00;;;5.50;99.90;;;;;;5111072;28;20134;-84
2022/12/01 07:00:42;;;;;;;112.78;39.58;;;5.40;99.90;;;;;;5110209;28;20126;-84
2022/12/01 07:03:07;;;;;;;122.95;41.47;;;5.50;99.90;;;;;;5110690;28;20087;-84
2022/12/01 07:05:33;;;;;;;122.57;42.85;;;6.10;99.90;;;;;;5110672;28;20071;-84
2022/12/01 07:07:59;;;;;;;117.63;41.10;;;5.40;99.90;;;;;;5094276;28;20105;-85
2022/12/01 07:10:26;;;;;;;118.93;40.58;;;6.60;99.90;;;;;;5110453;28;20135;-85
2022/12/01 07:12:52;;;;;;;107.85;39.65;;;6.40;99.90;;;;;;5077460;28;20059;-84
2022/12/01 07:15:18;;;;;;;124.35;41.45;;;5.40;99.90;;;;;;5093785;28;20047;-84
2022/12/01 07:17:44;;;;;;;114.72;41.13;;;5.60;99.90;;;;;;5077089;28;20060;-84
2022/12/01 07:20:10;;;;;;;117.25;39.42;;;5.40;99.90;;;;;;5110413;28;20044;-84
2022/12/01 07:22:36;;;;;;;119.43;40.47;;;5.40;99.90;;;;;;5110748;28;20047;-84
2022/12/01 07:25:01;;;;;;;113.68;39.15;;;5.40;99.90;;;;;;5093752;28;20143;-83
2022/12/01 07:27:30;;;;;;;119.43;39.97;;;5.40;99.90;;;;;;5076783;28;20124;-83
2022/12/01 07:29:56;;;;;;;117.60;42.70;;;5.40;99.90;;;;;;5077096;28;20070;-84
2022/12/01 07:32:22;;;;;;;125.47;42.17;;;5.40;99.90;;;;;;5110081;28;20491;-86
2022/12/01 07:34:47;;;;;;;125.15;42.42;;;5.40;99.90;;;;;;5059892;28;20069;-83
2022/12/01 07:37:13;;;;;;;109.88;40.58;;;5.40;99.90;;;;;;5110516;28;20400;-83
2022/12/01 07:39:40;;;;;;;113.68;40.72;;;5.40;99.90;;;;;;5076483;28;20035;-83
2022/12/01 07:42:06;;;;;;;114.50;41.30;;;5.40;99.90;;;;;;5093444;28;20134;-84
2022/12/01 07:44:31;;;;;;;115.88;41.60;;;5.40;99.90;;;;;;5093652;28;20495;-83
2022/12/01 07:46:57;;;;;;;126.38;40.83;;;5.70;99.90;;;;;;5110472;28;20484;-84
2022/12/01 07:49:23;;;;;;;115.38;38.83;;;5.40;99.90;;;;;;5129796;27;20055;-83
2022/12/01 07:51:48;;;;;;;110.45;39.13;;;5.40;99.90;;;;;;5063489;28;20062;-83
2022/12/01 07:54:15;;;;;;;116.10;39.88;;;5.90;99.90;;;;;;5063922;28;20159;-83
2022/12/01 07:56:48;;;;;;;109.43;38.60;;;5.40;99.90;;;;;;5097948;28;20140;-83
2022/12/01 07:59:14;;;;;;;111.43;39.83;;;5.80;99.90;;;;;;5114073;28;20036;-84
2022/12/01 08:01:40;;;;;;;106.72;39.33;;;5.40;99.90;;;;;;5113193;28;20047;-84
2022/12/01 08:04:05;;;;;;;116.15;40.67;;;5.50;99.90;;;;;;5114283;28;20044;-81
2022/12/01 08:06:31;;;;;;;113.97;41.78;;;5.50;99.90;;;;;;5066736;28;20051;-84
2022/12/01 08:08:57;;;;;;;118.80;39.28;;;5.50;99.90;;;;;;5097215;28;20052;-84
2022/12/01 08:11:24;;;;;;;117.60;40.60;;;5.50;99.90;;;;;;5113601;27;20039;-84
2022/12/01 08:13:50;;;;;;;109.00;38.65;;;6.60;99.90;;;;;;5096449;28;20047;-83
2022/12/01 08:16:17;;;;;;;110.88;40.33;;;6.20;99.90;;;;;;5080228;28;20065;-84
2022/12/01 08:18:43;;;;;;;122.03;40.95;;;5.50;99.90;;;;;;5096470;28;20062;-84
2022/12/01 08:21:10;;;;;;;112.38;41.90;;;5.50;99.90;;;;;;5080071;28;20047;-84
2022/12/01 08:23:36;;;;;;;116.82;40.05;;;5.60;99.90;;;;;;5113431;28;20051;-84
2022/12/01 08:26:02;;;;;;;110.03;39.40;;;5.60;99.90;;;;;;5113261;28;20559;-84
2022/12/01 08:28:28;;;;;;;104.93;37.65;;;6.50;99.90;;;;;;5079843;28;20054;-88
2022/12/01 08:30:54;;;;;;;117.10;40.15;;;5.60;99.90;;;;;;5096596;28;20396;-84
2022/12/01 08:33:20;;;;;;;117.57;40.10;;;5.70;99.90;;;;;;5063092;28;20058;-83
2022/12/01 08:35:45;;;;;;;107.80;40.85;;;5.70;99.90;;;;;;5096215;28;20113;-83
2022/12/01 08:38:11;;;;;;;107.35;38.20;;;5.70;99.90;;;;;;5116606;27;20051;-83
2022/12/01 08:40:37;;;;;;;99.93;39.70;;;5.70;99.90;;;;;;5081536;27;20058;-83
2022/12/01 08:43:04;;;;;;;95.75;35.28;;;7.10;99.90;;;;;;5099248;27;20043;-84
2022/12/01 08:45:29;;;;;;;97.88;38.20;;;6.10;99.90;;;;;;5099654;27;20496;-83
2022/12/01 08:47:57;;;;;;;107.25;38.35;;;7.20;99.90;;;;;;5132470;27;20130;-85
2022/12/01 08:50:25;;;;;;;103.90;37.88;;;6.90;99.90;;;;;;5097714;27;20051;-84
2022/12/01 08:52:51;;;;;;;97.20;36.90;;;5.90;99.90;;;;;;5116059;27;20076;-83
2022/12/01 08:55:17;;;;;;;105.03;39.03;;;6.10;99.90;;;;;;5082235;27;20043;-84
2022/12/01 08:57:42;;;;;;;102.43;37.70;;;6.00;99.90;;;;;;5115923;27;20052;-84
2022/12/01 09:00:09;;;;;;;109.70;38.80;;;5.90;99.90;;;;;;5097460;27;20047;-83
2022/12/01 09:02:34;;;;;;;100.15;38.30;;;5.90;99.90;;;;;;5115097;27;20049;-83
2022/12/01 09:05:00;;;;;;;93.43;36.30;;;7.20;99.90;;;;;;5116529;27;20130;-85
2022/12/01 09:07:26;;;;;;;100.00;37.47;;;7.40;99.90;;;;;;5098848;27;20073;-85
2022/12/01 09:09:51;;;;;;;94.03;34.78;;;6.00;99.90;;;;;;5098667;27;20051;-83
2022/12/01 09:12:17;;;;;;;94.07;36.05;;;6.00;99.90;;;;;;5090002;27;20483;-83
2022/12/01 09:14:48;;;;;;;97.20;36.05;;;6.00;99.90;;;;;;5114183;27;20043;-84
2022/12/01 09:17:14;;;;;;;103.65;36.20;;;6.30;99.90;;;;;;5099622;27;20074;-85
2022/12/01 09:19:40;;;;;;;98.93;38.25;;;6.00;99.90;;;;;;5114708;27;20494;-84
2022/12/01 09:22:05;;;;;;;95.15;35.63;;;6.10;99.90;;;;;;5098545;27;20070;-84
2022/12/01 09:24:31;;;;;;;98.05;35.75;;;7.10;99.90;;;;;;5098604;27;20135;-83
2022/12/01 09:26:57;;;;;;;94.53;35.40;;;6.10;99.90;;;;;;5081060;27;20047;-83
2022/12/01 09:29:23;;;;;;;86.15;34.83;;;6.10;99.90;;;;;;5098043;27;20494;-84
2022/12/01 09:31:49;;;;;;;79.78;31.55;;;6.20;99.90;;;;;;5131618;27;20061;-84
2022/12/01 09:34:16;;;;;;;75.80;31.90;;;6.30;99.90;;;;;;5131838;27;20425;-82
2022/12/01 09:36:42;;;;;;;79.80;33.78;;;6.40;99.90;;;;;;5097429;27;20035;-84
2022/12/01 09:39:10;;;;;;;80.40;32.95;;;6.30;99.90;;;;;;5092454;27;20158;-83
2022/12/01 09:41:44;;;;;;;81.90;32.40;;;6.80;99.90;;;;;;5091665;27;20043;-84
2022/12/01 09:44:13;;;;;;;92.05;34.10;;;6.40;99.90;;;;;;5114428;27;20054;-83
2022/12/01 09:46:45;;;;;;;79.30;32.25;;;6.40;99.90;;;;;;5130381;27;20046;-84
2022/12/01 09:49:41;;;;;;;75.15;30.73;;;6.50;99.90;;;;;;5115902;27;20047;-85
2022/12/01 09:52:10;;;;;;;78.75;32.25;;;6.40;99.90;;;;;;5084418;27;20122;-84
2022/12/01 09:54:36;;;;;;;85.93;33.13;;;6.50;99.90;;;;;;5095006;27;20562;-84
2022/12/01 09:57:01;;;;;;;76.35;32.13;;;6.80;99.90;;;;;;5114000;27;20125;-83
2022/12/01 09:59:31;;;;;;;78.88;30.38;;;6.60;99.90;;;;;;5113221;27;20051;-85
2022/12/01 10:02:02;;;;;;;74.53;32.53;;;7.20;99.90;;;;;;5084999;27;20059;-84
2022/12/01 10:04:35;;;;;;;76.43;30.63;;;6.70;99.90;;;;;;5080751;27;20096;-83
2022/12/01 10:07:04;;;;;;;72.90;31.50;;;6.70;99.90;;;;;;5113683;27;20077;-83
2022/12/01 10:09:55;;;;;;;72.22;29.13;;;6.80;99.90;;;;;;5114105;27;20047;-84
2022/12/01 10:12:23;;;;;;;70.22;29.70;;;6.70;99.90;;;;;;5094789;27;20042;-83
2022/12/01 10:14:48;;;;;;;74.88;30.98;;;6.70;99.90;;;;;;5117334;27;20051;-85
2022/12/01 10:17:23;;;;;;;67.20;28.88;;;6.70;99.90;;;;;;5097684;27;20122;-83
2022/12/01 10:20:09;;;;;;;74.97;30.67;;;6.90;99.90;;;;;;5128574;27;20039;-83
2022/12/01 10:22:38;;;;;;;74.43;31.23;;;6.80;99.90;;;;;;5132243;27;20077;-85
2022/12/01 10:25:27;;;;;;;71.60;28.40;;;6.90;99.90;;;;;;5130272;27;20042;-83
2022/12/01 10:28:22;;;;;;;71.40;28.35;;;6.80;99.90;;;;;;5088910;27;20043;-84
2022/12/01 10:30:49;;;;;;;83.72;30.55;;;6.80;99.90;;;;;;5115044;27;20483;-83
2022/12/01 10:33:21;;;;;;;80.22;31.90;;;6.70;99.90;;;;;;5113963;27;20399;-83
2022/12/01 10:35:47;;;;;;;82.28;33.17;;;6.90;99.90;;;;;;5113302;28;20457;-83
2022/12/01 10:38:34;;;;;;;78.20;29.88;;;6.70;99.90;;;;;;5114124;28;20123;-82
2022/12/01 10:41:00;;;;;;;79.20;31.95;;;6.70;99.90;;;;;;5121532;27;20122;-83
2022/12/01 10:43:48;;;;;;;74.35;31.38;;;6.90;99.90;;;;;;5080252;28;20059;-83
2022/12/01 10:46:27;;;;;;;73.93;31.17;;;6.80;99.90;;;;;;5119870;27;20050;-83
2022/12/01 10:48:55;;;;;;;80.03;31.77;;;6.80;99.90;;;;;;5093358;28;20051;-83
2022/12/01 10:51:21;;;;;;;74.72;31.60;;;6.70;99.90;;;;;;5097484;28;20054;-82
2022/12/01 10:53:47;;;;;;;73.20;30.10;;;6.70;99.90;;;;;;5097489;28;20043;-82
2022/12/01 10:56:17;;;;;;;66.95;27.20;;;6.80;99.90;;;;;;5096564;28;20043;-82
2022/12/01 10:58:53;;;;;;;74.30;32.25;;;7.00;99.90;;;;;;5099157;27;20055;-83
2022/12/01 11:01:26;;;;;;;73.53;30.90;;;6.80;99.90;;;;;;5117572;27;20110;-82
2022/12/01 11:03:55;;;;;;;70.22;29.85;;;6.80;99.90;;;;;;5116651;27;20055;-83
2022/12/01 11:06:25;;;;;;;67.40;29.65;;;6.80;99.90;;;;;;5100130;27;20414;-83
2022/12/01 11:09:01;;;;;;;62.85;27.50;;;6.90;99.90;;;;;;5098250;27;20054;-83
2022/12/01 11:11:35;;;;;;;63.45;28.70;;;7.10;99.90;;;;;;5097659;27;20047;-81
2022/12/01 11:14:03;;;;;;;54.37;21.67;;;6.80;99.90;;;;;;5133303;27;20042;-81
2022/12/01 11:16:54;;;;;;;66.60;29.83;;;7.10;99.90;;;;;;5133771;27;20284;-82
2022/12/01 11:19:31;;;;;;;62.42;26.58;;;7.70;99.90;;;;;;5112611;27;20043;-81
2022/12/01 11:22:02;;;;;;;61.80;26.38;;;6.90;99.90;;;;;;5097873;27;20043;-82
2022/12/01 11:24:59;;;;;;;63.05;26.08;;;6.90;99.90;;;;;;5111162;27;20045;-81
2022/12/01 11:27:30;;;;;;;65.07;28.80;;;7.10;99.90;;;;;;5090506;27;20137;-82
2022/12/01 11:29:58;;;;;;;63.53;28.92;;;7.00;99.90;;;;;;5102137;27;20038;-82
2022/12/01 11:32:26;;;;;;;66.93;29.75;;;6.90;99.90;;;;;;5119401;27;20072;-81
2022/12/01 11:35:06;;;;;;;49.88;21.33;;;7.70;99.90;;;;;;5119374;27;20422;-82
2022/12/01 11:37:37;;;;;;;61.30;26.80;;;7.10;99.90;;;;;;5134476;27;20068;-82
2022/12/01 11:40:23;;;;;;;50.88;21.33;;;7.10;99.90;;;;;;5103043;27;20049;-82
2022/12/01 11:42:50;;;;;;;60.63;28.55;;;7.10;99.90;;;;;;5105716;27;20047;-82
2022/12/01 11:45:22;;;;;;;56.58;25.63;;;7.00;99.90;;;;;;5103128;27;20523;-82
2022/12/01 11:48:24;;;;;;;63.05;31.52;;;7.00;99.90;;;;;;5137109;27;20450;-82
2022/12/01 11:51:04;;;;;;;58.97;27.33;;;6.90;99.90;;;;;;5103671;27;20506;-82
2022/12/01 11:53:38;;;;;;;66.25;29.45;;;7.00;99.90;;;;;;5137731;27;20057;-81
2022/12/01 11:56:27;;;;;;;58.60;28.65;;;6.80;99.90;;;;;;5103680;27;20497;-82
2022/12/01 11:59:04;;;;;;;52.38;23.83;;;7.00;99.90;;;;;;5120515;27;20134;-82
2022/12/01 12:01:54;;;;;;;56.97;25.08;;;6.90;99.90;;;;;;5122258;27;20054;-83
2022/12/01 12:04:45;;;;;;;47.80;21.67;;;6.90;99.90;;;;;;5136646;27;20050;-83
2022/12/01 12:07:32;;;;;;;57.20;27.92;;;7.20;99.90;;;;;;5134516;27;20039;-83
2022/12/01 12:10:10;;;;;;;58.13;27.90;;;7.00;99.90;;;;;;5136920;27;20038;-83
2022/12/01 12:12:41;;;;;;;58.60;28.05;;;6.90;99.90;;;;;;5120194;27;20046;-83
2022/12/01 12:15:33;;;;;;;60.08;28.15;;;6.80;99.90;;;;;;5135938;27;20046;-82
2022/12/01 12:18:13;;;;;;;63.63;28.80;;;6.80;99.90;;;;;;5110072;27;20046;-83
2022/12/01 12:20:53;;;;;;;59.08;28.15;;;6.90;99.90;;;;;;5131661;27;20043;-83
2022/12/01 12:23:18;;;;;;;57.92;25.88;;;6.90;99.90;;;;;;5134758;27;20046;-83
2022/12/01 12:25:57;;;;;;;59.03;28.48;;;7.00;99.90;;;;;;5136941;27;20100;-82
2022/12/01 12:28:51;;;;;;;56.80;26.40;;;6.90;99.90;;;;;;5137737;27;20390;-84
2022/12/01 12:31:22;;;;;;;59.40;27.50;;;6.90;99.90;;;;;;5136677;27;20483;-82
2022/12/01 12:33:48;;;;;;;58.03;29.00;;;6.90;99.90;;;;;;5118538;27;20038;-83
2022/12/01 12:36:17;;;;;;;63.58;28.23;;;6.80;99.90;;;;;;5134789;27;20041;-84
2022/12/01 12:39:00;;;;;;;55.47;26.08;;;6.90;99.90;;;;;;5099822;27;20502;-83
2022/12/01 12:41:41;;;;;;;60.42;28.13;;;6.80;99.90;;;;;;5133972;27;20050;-83
2022/12/01 12:44:12;;;;;;;60.25;27.67;;;6.80;99.90;;;;;;5117542;27;20050;-83
2022/12/01 12:47:00;;;;;;;53.63;25.30;;;6.80;99.90;;;;;;5118241;27;20042;-83